createdAt,value
2018-07-25T00:00:36.224Z,8.73
2018-07-25T00:05:38.882Z,8.60
2018-07-25T00:10:48.686Z,9.10
2018-07-25T00:15:51.427Z,8.50
2018-07-25T00:20:54.055Z,8.87
2018-07-25T00:25:56.683Z,8.57
2018-07-25T00:30:59.346Z,8.60
2018-07-25T00:36:02.060Z,8.67
2018-07-25T00:41:04.715Z,9.30
2018-07-25T00:46:07.348Z,8.90
2018-07-25T00:51:10.003Z,8.87
2018-07-25T00:56:13.332Z,9.53
2018-07-25T01:01:15.992Z,9.50
2018-07-25T01:06:18.603Z,9.13
2018-07-25T01:11:21.229Z,9.67
2018-07-25T01:16:23.834Z,9.77
2018-07-25T01:21:26.447Z,9.93
2018-07-25T01:26:29.060Z,10.30
2018-07-25T01:31:31.671Z,10.10
2018-07-25T01:36:34.263Z,9.73
2018-07-25T01:41:37.874Z,10.00
2018-07-25T01:46:40.506Z,9.77
2018-07-25T01:51:43.130Z,10.50
2018-07-25T01:56:45.699Z,10.23
2018-07-25T02:01:48.327Z,10.77
2018-07-25T02:06:50.930Z,10.27
2018-07-25T02:11:53.564Z,10.73
2018-07-25T02:16:56.178Z,9.90
2018-07-25T02:21:58.789Z,11.03
2018-07-25T02:27:01.396Z,11.00
2018-07-25T02:32:04.225Z,11.80
2018-07-25T02:37:07.035Z,12.20
2018-07-25T02:42:09.673Z,12.53
2018-07-25T02:47:12.283Z,12.10
2018-07-25T02:52:14.942Z,11.77
2018-07-25T02:57:17.555Z,12.43
2018-07-25T03:02:20.075Z,12.10
2018-07-25T03:07:22.718Z,11.70
2018-07-25T03:12:25.338Z,12.30
2018-07-25T08:19:59.668Z,7.73
2018-07-25T08:25:02.386Z,7.83
2018-07-25T08:30:05.379Z,6.97
2018-07-25T08:35:07.943Z,7.00
2018-07-25T08:40:10.504Z,6.60
2018-07-25T08:45:13.088Z,6.33
2018-07-25T08:50:15.712Z,7.20
2018-07-25T08:55:18.303Z,7.30
2018-07-25T09:00:20.974Z,6.90
2018-07-25T09:05:23.603Z,7.30
2018-07-25T09:10:26.166Z,6.53
2018-07-25T09:15:28.818Z,5.73
2018-07-25T09:20:31.443Z,6.37
2018-07-25T09:25:34.461Z,7.13
2018-07-25T09:30:37.008Z,5.60
2018-07-25T09:35:41.541Z,5.20
2018-07-25T09:40:44.311Z,5.77
2018-07-25T09:45:46.962Z,6.10
2018-07-25T09:50:49.578Z,5.53
2018-07-25T09:55:52.164Z,5.77
2018-07-25T10:00:55.143Z,5.43
2018-07-25T10:05:57.712Z,5.13
2018-07-25T10:11:00.310Z,5.80
2018-07-25T10:16:02.949Z,5.22
2018-07-25T10:21:12.347Z,5.22
2018-07-25T10:26:15.023Z,5.30
2018-07-25T10:31:17.624Z,4.85
2018-07-25T10:36:20.254Z,4.90
2018-07-25T10:41:22.826Z,4.85
2018-07-25T10:46:25.507Z,5.37
2018-07-25T20:19:06.857Z,3.53
2018-07-25T20:24:09.525Z,3.43
2018-07-25T20:29:12.123Z,3.27
2018-07-25T20:34:14.680Z,3.30
2018-07-25T20:39:17.410Z,3.37
2018-07-25T20:44:20.358Z,3.50
2018-07-25T20:49:22.983Z,3.20
2018-07-25T20:54:26.045Z,3.20
2018-07-25T20:59:29.147Z,3.40
2018-07-25T21:04:31.887Z,3.20
2018-07-25T21:09:34.484Z,3.20
2018-07-25T21:14:37.063Z,3.80
2018-07-25T21:19:39.631Z,3.30
2018-07-25T21:24:42.224Z,3.60
2018-07-25T21:29:44.931Z,3.40
2018-07-25T21:34:47.596Z,3.13
2018-07-25T21:39:50.198Z,3.13
2018-07-25T21:44:52.788Z,3.13
2018-07-25T21:49:55.430Z,3.33
2018-07-25T21:54:58.015Z,2.80
2018-07-25T22:00:00.588Z,2.80
2018-07-25T22:05:03.267Z,3.53
2018-07-25T22:10:06.171Z,3.20
2018-07-25T22:15:10.067Z,3.40
2018-07-25T22:20:12.679Z,3.50
2018-07-25T22:25:15.280Z,3.40
2018-07-25T22:30:17.874Z,3.83
2018-07-25T22:35:20.459Z,3.60
2018-07-25T22:40:23.019Z,3.63
2018-07-25T22:45:25.707Z,3.90
2018-07-25T22:50:28.329Z,3.70
2018-07-25T22:55:30.925Z,3.83
2018-07-25T23:00:33.587Z,4.20
2018-07-25T23:05:36.164Z,3.80
2018-07-25T23:10:38.755Z,4.07
2018-07-25T23:15:41.324Z,3.90
2018-07-25T23:20:43.898Z,4.07
2018-07-25T23:25:46.827Z,4.10
2018-07-25T23:30:49.439Z,4.13
2018-07-25T23:35:52.023Z,4.57
2018-07-25T23:40:54.603Z,3.93
2018-07-25T23:45:57.170Z,4.07
2018-07-25T23:50:59.770Z,4.03
2018-07-25T23:56:02.396Z,4.10
